createdAt,value
2023-02-13T00:01:04.465Z,97633.03
2023-02-13T00:03:30.972Z,97634.88
2023-02-13T00:05:57.485Z,97640.13
2023-02-13T00:08:23.892Z,97638.38
2023-02-13T00:10:50.362Z,97638.28
2023-02-13T00:13:16.812Z,97642.66
2023-02-13T00:15:43.395Z,97636.78
2023-02-13T00:18:09.911Z,97642.78
2023-02-13T00:20:36.369Z,97627.16
2023-02-13T00:23:02.820Z,97624.56
2023-02-13T00:25:29.349Z,97629.63
2023-02-13T00:27:55.816Z,97622.56
2023-02-13T00:30:22.801Z,97623.25
2023-02-13T00:32:49.237Z,97625.94
2023-02-13T00:35:15.668Z,97630.28
2023-02-13T00:37:42.127Z,97627.63
2023-02-13T00:40:09.073Z,97618.91
2023-02-13T00:42:35.531Z,97623.03
2023-02-13T00:45:01.955Z,97619.69
2023-02-13T00:47:28.576Z,97601.63
2023-02-13T00:49:55.012Z,97608.38
2023-02-13T00:52:21.427Z,97609.56
2023-02-13T00:54:48.365Z,97613.81
2023-02-13T00:57:14.835Z,97604.13
2023-02-13T00:59:41.271Z,97610.06
2023-02-13T01:02:07.773Z,97602.03
2023-02-13T01:04:34.341Z,97600.22
2023-02-13T01:07:00.865Z,97597.53
2023-02-13T01:09:27.398Z,97604.22
2023-02-13T01:11:53.846Z,97600.72
2023-02-13T01:14:20.308Z,97595.53
2023-02-13T01:16:46.772Z,97594.59
2023-02-13T01:19:13.204Z,97595.19
2023-02-13T01:21:39.800Z,97587.34
2023-02-13T01:24:06.459Z,97590.00
2023-02-13T01:26:33.137Z,97581.31
2023-02-13T01:28:59.763Z,97579.41
2023-02-13T01:31:26.683Z,97577.75
2023-02-13T01:33:55.915Z,97571.28
2023-02-13T01:36:22.407Z,97571.94
2023-02-13T01:38:48.936Z,97570.09
2023-02-13T01:41:15.692Z,97569.94
2023-02-13T01:43:45.040Z,97562.81
2023-02-13T01:46:12.565Z,97558.75
2023-02-13T01:48:39.037Z,97550.78
2023-02-13T01:51:08.718Z,97542.34
2023-02-13T01:53:46.815Z,97550.53
2023-02-13T01:56:25.730Z,97555.41
2023-02-13T01:58:54.392Z,97549.88
2023-02-13T02:01:22.171Z,97551.38
2023-02-13T02:04:05.938Z,97534.00
2023-02-13T02:06:34.609Z,97553.97
2023-02-13T02:09:08.048Z,97557.31
2023-02-13T02:11:53.110Z,97551.03
2023-02-13T02:14:19.881Z,97544.94
2023-02-13T02:16:46.473Z,97548.19
2023-02-13T02:19:41.977Z,97544.44
2023-02-13T02:22:27.020Z,97534.78
2023-02-13T02:25:02.521Z,97538.97
2023-02-13T02:27:54.407Z,97529.44
2023-02-13T02:30:23.874Z,97529.44
2023-02-13T02:33:10.671Z,97532.94
2023-02-13T02:35:43.664Z,97535.44
2023-02-13T02:38:18.329Z,97535.25
2023-02-13T02:41:02.000Z,97529.91
2023-02-13T02:43:28.414Z,97535.19
2023-02-13T02:46:02.077Z,97526.47
2023-02-13T02:48:46.979Z,97518.53
2023-02-13T02:51:45.551Z,97522.06
2023-02-13T02:54:39.562Z,97525.50
2023-02-13T02:57:17.416Z,97526.09
2023-02-13T03:00:02.683Z,97527.00
2023-02-13T03:02:49.534Z,97536.28
2023-02-13T03:05:38.608Z,97538.78
2023-02-13T03:08:05.827Z,97534.66
2023-02-13T03:10:52.474Z,97542.53
2023-02-13T03:13:31.131Z,97539.16
2023-02-13T03:16:17.920Z,97532.28
2023-02-13T03:19:05.946Z,97524.38
2023-02-13T03:22:00.235Z,97531.13
2023-02-13T03:24:26.625Z,97526.59
2023-02-13T03:27:01.408Z,97525.63
2023-02-13T03:29:55.655Z,97516.41
2023-02-13T03:32:24.849Z,97515.66
2023-02-13T03:35:43.429Z,97514.00
2023-02-13T03:38:17.517Z,97516.59
2023-02-13T03:41:10.266Z,97511.56
2023-02-13T03:43:43.916Z,97522.28
2023-02-13T03:46:10.906Z,97523.94
2023-02-13T03:48:58.138Z,97525.81
2023-02-13T03:51:31.084Z,97530.38
2023-02-13T03:54:00.307Z,97521.72
2023-02-13T03:56:46.237Z,97536.31
2023-02-13T03:59:32.888Z,97535.44
2023-02-13T04:02:02.503Z,97531.22
2023-02-13T04:04:33.693Z,97544.28
2023-02-13T04:07:02.555Z,97554.81
2023-02-13T04:09:30.059Z,97554.06
2023-02-13T04:12:03.044Z,97552.06
2023-02-13T04:14:52.776Z,97547.34
2023-02-13T04:17:25.304Z,97555.03
2023-02-13T04:19:51.806Z,97561.75
2023-02-13T04:22:18.347Z,97550.53
2023-02-13T04:24:45.615Z,97548.97
2023-02-13T04:27:14.302Z,97544.69
2023-02-13T04:29:40.850Z,97548.13
2023-02-13T04:32:07.456Z,97548.78
2023-02-13T04:34:33.957Z,97544.53
2023-02-13T04:37:00.381Z,97547.94
2023-02-13T04:39:26.831Z,97552.22
2023-02-13T04:41:53.249Z,97551.19
2023-02-13T04:44:19.675Z,97549.53
2023-02-13T04:46:46.153Z,97546.19
2023-02-13T04:49:12.672Z,97546.69
2023-02-13T04:51:39.268Z,97544.84
2023-02-13T04:54:05.718Z,97543.03
2023-02-13T04:56:32.160Z,97550.03
2023-02-13T04:58:58.590Z,97555.41
2023-02-13T05:01:25.095Z,97547.44
2023-02-13T05:03:51.682Z,97547.81
2023-02-13T05:06:18.163Z,97545.78
2023-02-13T05:08:44.573Z,97555.97
2023-02-13T05:11:11.029Z,97558.50
2023-02-13T05:13:37.438Z,97551.56
2023-02-13T05:16:03.944Z,97551.28
2023-02-13T05:18:30.400Z,97547.53
2023-02-13T05:21:22.820Z,97547.25
2023-02-13T05:23:49.232Z,97548.84
2023-02-13T05:26:15.641Z,97548.00
2023-02-13T05:29:00.627Z,97552.22
2023-02-13T05:31:27.125Z,97548.69
2023-02-13T05:33:53.604Z,97554.44
2023-02-13T05:36:20.186Z,97542.97
2023-02-13T05:38:46.606Z,97535.13
2023-02-13T05:41:13.653Z,97539.44
2023-02-13T05:43:40.145Z,97544.38
2023-02-13T05:46:07.384Z,97546.88
2023-02-13T05:48:33.939Z,97549.97
2023-02-13T05:51:00.976Z,97554.97
2023-02-13T05:53:27.824Z,97555.97
2023-02-13T05:55:54.308Z,97553.38
2023-02-13T05:58:21.100Z,97563.00
2023-02-13T06:00:47.566Z,97557.81
2023-02-13T06:03:14.737Z,97553.94
2023-02-13T06:05:41.245Z,97546.69
2023-02-13T06:08:07.708Z,97536.88
2023-02-13T06:10:34.245Z,97545.22
2023-02-13T06:13:00.739Z,97548.53
2023-02-13T06:15:27.355Z,97548.19
2023-02-13T06:17:53.838Z,97559.03
2023-02-13T06:20:20.349Z,97560.53
2023-02-13T06:22:50.695Z,97560.25
2023-02-13T06:25:17.383Z,97553.97
2023-02-13T06:27:43.899Z,97550.34
2023-02-13T06:30:10.629Z,97550.06
2023-02-13T06:32:37.073Z,97544.63
2023-02-13T06:35:05.557Z,97538.31
2023-02-13T06:37:32.475Z,97546.66
2023-02-13T06:39:58.979Z,97548.03
2023-02-13T06:42:25.642Z,97545.44
2023-02-13T06:44:52.226Z,97550.94
2023-02-13T06:47:18.644Z,97543.13
2023-02-13T06:49:45.118Z,97539.78
2023-02-13T06:52:11.631Z,97549.84
2023-02-13T06:54:47.178Z,97548.69
2023-02-13T06:57:15.027Z,97556.94
2023-02-13T06:59:41.501Z,97559.28
2023-02-13T07:02:09.779Z,97566.03
2023-02-13T07:04:36.202Z,97551.13
2023-02-13T07:07:02.789Z,97565.59
2023-02-13T07:09:29.252Z,97565.41
2023-02-13T07:11:55.676Z,97562.34
2023-02-13T07:14:22.176Z,97561.00
2023-02-13T07:16:48.630Z,97565.00
2023-02-13T07:19:15.085Z,97562.22
2023-02-13T07:21:41.562Z,97565.34
2023-02-13T07:24:08.342Z,97571.94
2023-02-13T07:26:34.783Z,97570.00
2023-02-13T07:29:11.527Z,97568.88
2023-02-13T07:31:39.347Z,97566.38
2023-02-13T07:34:05.963Z,97568.59
2023-02-13T07:36:32.464Z,97568.28
2023-02-13T07:38:59.135Z,97570.53
2023-02-13T07:41:26.936Z,97554.72
2023-02-13T07:43:53.893Z,97561.56
2023-02-13T07:46:20.798Z,97554.50
2023-02-13T07:48:47.267Z,97553.50
2023-02-13T07:51:13.915Z,97555.78
2023-02-13T07:53:40.347Z,97556.44
2023-02-13T07:56:07.442Z,97553.44
2023-02-13T07:58:33.937Z,97555.84
2023-02-13T08:01:05.458Z,97560.66
2023-02-13T08:03:31.960Z,97560.38
2023-02-13T08:05:58.692Z,97557.56
2023-02-13T08:08:25.343Z,97555.50
2023-02-13T08:11:10.389Z,97550.09
2023-02-13T08:13:37.440Z,97554.88
2023-02-13T08:16:04.018Z,97552.81
2023-02-13T08:18:30.444Z,97555.03
2023-02-13T08:20:56.923Z,97544.19
2023-02-13T08:23:23.575Z,97550.88
2023-02-13T08:25:50.052Z,97540.03
2023-02-13T08:28:16.960Z,97541.31
2023-02-13T08:30:43.481Z,97543.50
2023-02-13T08:33:09.946Z,97536.22
2023-02-13T08:35:36.440Z,97530.47
2023-02-13T08:38:03.498Z,97525.78
2023-02-13T08:40:29.946Z,97531.44
2023-02-13T08:43:00.399Z,97527.44
2023-02-13T08:45:27.124Z,97530.56
2023-02-13T08:47:55.936Z,97524.00
2023-02-13T08:50:22.390Z,97527.84
2023-02-13T08:52:48.875Z,97515.22
2023-02-13T08:55:15.448Z,97516.56
2023-02-13T08:57:41.891Z,97522.28
2023-02-13T09:00:09.043Z,97520.94
2023-02-13T09:02:35.519Z,97512.47
2023-02-13T09:05:02.063Z,97509.41
2023-02-13T09:07:28.521Z,97507.06
2023-02-13T09:09:55.116Z,97510.69
2023-02-13T09:12:21.580Z,97506.50
2023-02-13T09:14:48.012Z,97512.09
2023-02-13T09:17:18.381Z,97509.88
2023-02-13T09:19:46.684Z,97511.91
2023-02-13T09:22:13.175Z,97508.97
2023-02-13T09:24:39.583Z,97506.63
2023-02-13T09:27:06.167Z,97509.50
2023-02-13T09:29:33.882Z,97504.66
2023-02-13T09:32:00.624Z,97510.28
2023-02-13T09:34:27.086Z,97506.22
2023-02-13T09:36:54.327Z,97500.56
2023-02-13T09:39:20.792Z,97496.66
2023-02-13T09:41:48.780Z,97491.69
2023-02-13T09:44:35.120Z,97492.66
2023-02-13T09:47:10.467Z,97494.69
2023-02-13T09:49:38.768Z,97497.53
2023-02-13T09:52:05.252Z,97491.03
2023-02-13T09:54:32.510Z,97494.91
2023-02-13T09:57:01.102Z,97502.56
2023-02-13T09:59:40.752Z,97503.84
2023-02-13T10:02:25.841Z,97504.19
2023-02-13T10:05:21.941Z,97501.13
2023-02-13T10:07:48.476Z,97490.03
2023-02-13T10:10:33.773Z,97499.91
2023-02-13T10:13:12.611Z,97495.75
2023-02-13T10:15:48.102Z,97494.19
2023-02-13T10:18:19.199Z,97490.00
2023-02-13T10:20:48.992Z,97497.00
2023-02-13T10:23:19.723Z,97493.63
2023-02-13T10:26:04.271Z,97478.38
2023-02-13T10:29:14.517Z,97481.81
2023-02-13T10:31:43.272Z,97469.06
2023-02-13T10:34:15.578Z,97470.22
2023-02-13T10:36:44.615Z,97463.25
2023-02-13T10:39:23.542Z,97461.81
2023-02-13T10:41:50.076Z,97468.69
2023-02-13T10:44:25.597Z,97466.91
2023-02-13T10:46:52.124Z,97469.41
2023-02-13T10:49:37.203Z,97469.41
2023-02-13T10:52:22.708Z,97470.13
2023-02-13T10:55:06.363Z,97463.78
2023-02-13T10:57:41.952Z,97454.97
2023-02-13T11:00:18.459Z,97442.53
2023-02-13T11:02:45.012Z,97430.03
2023-02-13T11:05:14.578Z,97425.50
2023-02-13T11:07:42.430Z,97418.06
2023-02-13T11:10:19.734Z,97420.19
2023-02-13T11:12:46.486Z,97425.59
2023-02-13T11:15:22.042Z,97421.75
2023-02-13T11:17:49.804Z,97425.66
2023-02-13T11:20:37.013Z,97413.81
2023-02-13T11:23:22.054Z,97427.34
2023-02-13T11:26:03.014Z,97417.44
2023-02-13T11:28:31.489Z,97422.41
2023-02-13T11:31:09.936Z,97415.13
2023-02-13T11:33:36.454Z,97418.16
2023-02-13T11:36:07.279Z,97411.97
2023-02-13T11:38:33.797Z,97421.38
2023-02-13T11:41:13.896Z,97423.56
2023-02-13T11:43:48.624Z,97410.09
2023-02-13T11:46:20.350Z,97414.91
2023-02-13T11:49:04.077Z,97405.00
2023-02-13T11:51:38.837Z,97414.13
2023-02-13T11:54:05.937Z,97413.59
2023-02-13T11:57:03.343Z,97410.00
2023-02-13T11:59:32.391Z,97400.88
2023-02-13T12:02:22.150Z,97404.06
2023-02-13T12:04:49.994Z,97405.75
2023-02-13T12:07:22.528Z,97408.09
2023-02-13T12:09:50.939Z,97400.91
2023-02-13T12:12:22.897Z,97404.09
2023-02-13T12:14:49.820Z,97403.69
2023-02-13T12:17:30.820Z,97399.94
2023-02-13T12:19:58.230Z,97396.94
2023-02-13T12:22:42.453Z,97391.41
2023-02-13T12:25:27.596Z,97393.88
2023-02-13T12:28:14.329Z,97390.28
2023-02-13T12:30:43.845Z,97385.59
2023-02-13T12:33:16.561Z,97387.97
2023-02-13T12:35:51.993Z,97389.75
2023-02-13T12:38:37.351Z,97385.91
2023-02-13T12:41:13.842Z,97383.94
2023-02-13T12:43:46.328Z,97376.34
2023-02-13T12:46:15.972Z,97381.47
2023-02-13T12:48:45.324Z,97390.28
2023-02-13T12:51:21.136Z,97385.59
2023-02-13T12:53:53.954Z,97382.56
2023-02-13T12:56:26.450Z,97363.22
2023-02-13T12:58:53.046Z,97376.19
2023-02-13T13:01:22.457Z,97366.53
2023-02-13T13:03:51.792Z,97366.53
2023-02-13T13:06:27.703Z,97361.84
2023-02-13T13:08:57.107Z,97367.75
2023-02-13T13:11:42.475Z,97355.44
2023-02-13T13:14:27.125Z,97359.75
2023-02-13T13:16:59.711Z,97356.00
2023-02-13T13:19:33.073Z,97358.50
2023-02-13T13:22:00.232Z,97354.91
2023-02-13T13:24:35.876Z,97362.50
2023-02-13T13:27:03.358Z,97363.47
2023-02-13T13:29:36.590Z,97370.66
2023-02-13T13:32:07.529Z,97365.41
2023-02-13T13:34:35.397Z,97368.72
2023-02-13T13:37:20.002Z,97368.72
2023-02-13T13:40:05.205Z,97373.00
2023-02-13T13:42:52.247Z,97373.41
2023-02-13T13:45:18.651Z,97372.59
2023-02-13T13:47:48.389Z,97374.94
2023-02-13T13:50:19.517Z,97358.50
2023-02-13T13:53:04.848Z,97360.41
2023-02-13T13:55:46.482Z,97362.94
2023-02-13T13:58:22.126Z,97349.09
2023-02-13T14:01:08.505Z,97350.78
2023-02-13T14:03:36.571Z,97339.28
2023-02-13T14:06:13.770Z,97352.72
2023-02-13T14:08:40.181Z,97352.72
2023-02-13T14:11:24.601Z,97349.38
2023-02-13T14:13:51.314Z,97352.28
2023-02-13T14:16:36.394Z,97344.69
2023-02-13T14:19:02.890Z,97347.31
2023-02-13T14:21:29.352Z,97337.25
2023-02-13T14:24:00.699Z,97331.44
2023-02-13T14:26:29.880Z,97334.47
2023-02-13T14:28:58.522Z,97332.69
2023-02-13T14:31:32.295Z,97326.31
2023-02-13T14:34:04.778Z,97322.88
2023-02-13T14:36:33.741Z,97318.44
2023-02-13T14:39:07.574Z,97322.88
2023-02-13T14:41:55.381Z,97324.22
2023-02-13T14:44:33.993Z,97322.31
2023-02-13T14:47:02.932Z,97319.53
2023-02-13T14:49:31.885Z,97320.53
2023-02-13T14:52:08.451Z,97319.25
2023-02-13T14:54:38.541Z,97325.38
2023-02-13T14:57:07.484Z,97320.38
2023-02-13T14:59:38.985Z,97323.69
2023-02-13T15:02:08.300Z,97304.91
2023-02-13T15:04:43.485Z,97294.69
2023-02-13T15:07:22.117Z,97293.44
2023-02-13T15:10:10.037Z,97296.63
2023-02-13T15:12:37.487Z,97283.63
2023-02-13T15:15:22.521Z,97278.38
2023-02-13T15:17:48.963Z,97281.97
2023-02-13T15:20:26.514Z,97283.63
2023-02-13T15:22:53.081Z,97289.16
2023-02-13T15:25:31.706Z,97287.63
2023-02-13T15:27:59.799Z,97289.31
2023-02-13T15:30:27.867Z,97288.88
2023-02-13T15:32:55.531Z,97275.06
2023-02-13T15:35:22.252Z,97280.03
2023-02-13T15:37:48.689Z,97276.31
2023-02-13T15:40:28.746Z,97277.53
2023-02-13T15:42:56.348Z,97283.03
2023-02-13T15:45:24.517Z,97285.91
2023-02-13T15:47:51.796Z,97286.91
2023-02-13T15:50:21.248Z,97288.81
2023-02-13T15:52:48.297Z,97280.94
2023-02-13T15:55:22.163Z,97277.09
2023-02-13T15:57:49.910Z,97288.53
2023-02-13T16:00:23.252Z,97287.84
2023-02-13T16:02:51.312Z,97278.59
2023-02-13T16:05:26.545Z,97290.75
2023-02-13T16:08:01.325Z,97288.94
2023-02-13T16:10:29.289Z,97279.13
2023-02-13T16:12:56.993Z,97299.69
2023-02-13T16:15:25.579Z,97291.13
2023-02-13T16:17:54.265Z,97281.31
2023-02-13T16:20:25.844Z,97275.13
2023-02-13T16:23:02.709Z,97290.16
2023-02-13T16:25:31.406Z,97293.31
2023-02-13T16:27:59.712Z,97288.91
2023-02-13T16:30:33.792Z,97275.53
2023-02-13T16:33:12.693Z,97280.75
2023-02-13T16:35:40.988Z,97285.44
2023-02-13T16:38:25.822Z,97281.28
2023-02-13T16:40:52.303Z,97293.13
2023-02-13T16:43:33.926Z,97301.94
2023-02-13T16:46:29.885Z,97304.97
2023-02-13T16:48:56.315Z,97304.03
2023-02-13T16:51:32.160Z,97303.03
2023-02-13T16:53:58.681Z,97301.25
2023-02-13T16:56:25.145Z,97306.88
2023-02-13T16:59:02.290Z,97312.38
2023-02-13T17:01:28.759Z,97313.78
2023-02-13T17:03:55.710Z,97305.66
2023-02-13T17:06:24.303Z,97296.59
2023-02-13T17:08:52.693Z,97286.22
2023-02-13T17:11:19.640Z,97289.22
2023-02-13T17:13:46.047Z,97292.53
2023-02-13T17:16:13.144Z,97297.78
2023-02-13T17:18:39.608Z,97292.25
2023-02-13T17:21:06.242Z,97297.19
2023-02-13T17:23:32.701Z,97286.34
2023-02-13T17:25:59.198Z,97280.03
2023-02-13T17:28:27.810Z,97262.53
2023-02-13T17:30:56.768Z,97256.78
2023-02-13T17:33:27.619Z,97257.34
2023-02-13T17:35:54.404Z,97266.97
2023-02-13T17:38:21.198Z,97258.41
2023-02-13T17:40:47.858Z,97253.19
2023-02-13T17:43:15.767Z,97240.34
2023-02-13T17:45:42.842Z,97238.13
2023-02-13T17:48:09.341Z,97219.66
2023-02-13T17:50:36.590Z,97215.38
2023-02-13T17:53:08.514Z,97221.31
2023-02-13T17:55:35.377Z,97223.94
2023-02-13T17:58:02.222Z,97233.13
2023-02-13T18:00:30.643Z,97227.09
2023-02-13T18:02:59.226Z,97218.97
2023-02-13T18:05:26.012Z,97221.31
2023-02-13T18:07:52.436Z,97222.72
2023-02-13T18:10:20.452Z,97217.47
2023-02-13T18:12:47.424Z,97216.34
2023-02-13T18:15:14.082Z,97211.63
2023-02-13T18:17:40.565Z,97218.25
2023-02-13T18:20:07.799Z,97233.41
2023-02-13T18:22:34.244Z,97237.13
2023-02-13T18:25:00.926Z,97236.72
2023-02-13T18:27:28.313Z,97232.75
2023-02-13T18:29:55.483Z,97237.59
2023-02-13T18:32:22.146Z,97239.66
2023-02-13T18:34:50.128Z,97255.78
2023-02-13T18:37:16.995Z,97260.75
2023-02-13T18:39:43.866Z,97245.63
2023-02-13T18:42:11.698Z,97252.09
2023-02-13T18:44:38.140Z,97264.44
2023-02-13T18:47:04.750Z,97269.66
2023-02-13T18:49:31.388Z,97270.00
2023-02-13T18:51:57.966Z,97277.31
2023-02-13T18:54:24.463Z,97272.66
2023-02-13T18:56:51.044Z,97284.66
2023-02-13T18:59:18.741Z,97288.22
2023-02-13T19:01:45.494Z,97290.81
2023-02-13T19:04:12.080Z,97295.78
2023-02-13T19:06:41.633Z,97292.78
2023-02-13T19:09:08.588Z,97306.72
2023-02-13T19:11:35.710Z,97311.94
2023-02-13T19:14:02.614Z,97302.16
2023-02-13T19:16:30.223Z,97310.59
2023-02-13T19:18:57.699Z,97300.25
2023-02-13T19:21:25.559Z,97293.34
2023-02-13T19:23:52.297Z,97287.81
2023-02-13T19:26:20.159Z,97285.78
2023-02-13T19:28:46.986Z,97287.88
2023-02-13T19:31:15.536Z,97285.13
2023-02-13T19:33:42.476Z,97303.91
2023-02-13T19:36:11.850Z,97306.25
2023-02-13T19:38:43.298Z,97308.59
2023-02-13T19:41:11.238Z,97310.00
2023-02-13T19:43:37.927Z,97310.56
2023-02-13T19:46:05.191Z,97313.59
2023-02-13T19:48:32.411Z,97301.16
2023-02-13T19:50:59.201Z,97309.50
2023-02-13T19:53:25.961Z,97303.69
2023-02-13T19:55:58.282Z,97311.41
2023-02-13T19:58:24.727Z,97319.41
2023-02-13T20:00:51.214Z,97319.78
2023-02-13T20:03:17.791Z,97331.25
2023-02-13T20:05:44.515Z,97321.59
2023-02-13T20:08:11.136Z,97328.22
2023-02-13T20:10:37.918Z,97327.38
2023-02-13T20:13:04.851Z,97322.53
2023-02-13T20:15:32.405Z,97313.69
2023-02-13T20:17:59.058Z,97315.44
2023-02-13T20:20:28.029Z,97306.16
2023-02-13T20:22:54.874Z,97316.13
2023-02-13T20:25:23.298Z,97313.22
2023-02-13T20:27:50.344Z,97325.34
2023-02-13T20:30:17.832Z,97326.97
2023-02-13T20:32:45.171Z,97320.50
2023-02-13T20:35:12.428Z,97323.97
2023-02-13T20:37:39.203Z,97315.41
2023-02-13T20:40:06.006Z,97324.91
2023-02-13T20:42:33.535Z,97330.03
2023-02-13T20:45:00.703Z,97326.97
2023-02-13T20:47:27.328Z,97340.06
2023-02-13T20:49:54.056Z,97341.97
2023-02-13T20:52:20.763Z,97352.91
2023-02-13T20:54:47.834Z,97345.88
2023-02-13T20:57:15.632Z,97345.75
2023-02-13T20:59:43.176Z,97344.34
2023-02-13T21:02:09.717Z,97346.53
2023-02-13T21:04:36.200Z,97350.09
2023-02-13T21:07:03.622Z,97348.72
2023-02-13T21:09:30.154Z,97347.88
2023-02-13T21:11:56.584Z,97341.22
2023-02-13T21:14:23.034Z,97325.81
2023-02-13T21:16:49.518Z,97328.88
2023-02-13T21:19:17.393Z,97328.88
2023-02-13T21:21:45.671Z,97315.78
2023-02-13T21:24:16.303Z,97326.78
2023-02-13T21:26:42.912Z,97319.63
2023-02-13T21:29:09.922Z,97308.19
2023-02-13T21:31:44.377Z,97305.84
2023-02-13T21:34:11.799Z,97310.81
2023-02-13T21:36:39.048Z,97296.88
2023-02-13T21:39:06.684Z,97298.53
2023-02-13T21:41:33.480Z,97285.03
2023-02-13T21:44:00.101Z,97290.00
2023-02-13T21:46:30.104Z,97290.00
2023-02-13T21:49:03.914Z,97298.84
2023-02-13T21:51:31.300Z,97283.25
2023-02-13T21:53:57.821Z,97288.50
2023-02-13T21:56:26.211Z,97303.25
2023-02-13T21:58:52.966Z,97306.44
2023-02-13T22:01:26.466Z,97300.50
2023-02-13T22:04:00.209Z,97304.66
2023-02-13T22:06:27.685Z,97308.78
2023-02-13T22:08:58.362Z,97300.81
2023-02-13T22:11:25.208Z,97307.97
2023-02-13T22:13:54.146Z,97299.28
2023-02-13T22:16:20.599Z,97287.16
2023-02-13T22:18:49.240Z,97300.50
2023-02-13T22:21:16.892Z,97299.38
2023-02-13T22:23:44.054Z,97316.03
2023-02-13T22:26:17.824Z,97315.34
2023-02-13T22:28:44.867Z,97306.41
2023-02-13T22:31:12.423Z,97307.13
2023-02-13T22:33:38.956Z,97291.25
2023-02-13T22:36:05.645Z,97277.88
2023-02-13T22:38:33.300Z,97298.97
2023-02-13T22:41:06.680Z,97302.44
2023-02-13T22:43:33.449Z,97286.97
2023-02-13T22:46:19.440Z,97302.94
2023-02-13T22:48:49.012Z,97295.09
2023-02-13T22:51:16.826Z,97297.28
2023-02-13T22:53:43.706Z,97305.91
2023-02-13T22:56:10.651Z,97292.56
2023-02-13T22:58:37.621Z,97303.28
2023-02-13T23:01:11.745Z,97295.19
2023-02-13T23:03:38.215Z,97300.94
2023-02-13T23:06:05.219Z,97285.47
2023-02-13T23:08:32.084Z,97285.91
2023-02-13T23:11:16.926Z,97284.72
2023-02-13T23:13:48.324Z,97282.91
2023-02-13T23:16:15.065Z,97275.00
2023-02-13T23:18:41.546Z,97265.41
2023-02-13T23:21:08.317Z,97266.56
2023-02-13T23:23:35.552Z,97264.16
2023-02-13T23:26:08.387Z,97281.50
2023-02-13T23:28:35.377Z,97277.78
2023-02-13T23:31:02.961Z,97268.28
2023-02-13T23:33:29.792Z,97276.41
2023-02-13T23:35:56.602Z,97263.81
2023-02-13T23:38:23.417Z,97254.59
2023-02-13T23:40:49.824Z,97252.00
2023-02-13T23:43:16.463Z,97248.94
2023-02-13T23:45:42.934Z,97240.94
2023-02-13T23:48:11.679Z,97240.66
2023-02-13T23:50:38.648Z,97245.41
2023-02-13T23:53:05.062Z,97237.13
2023-02-13T23:55:31.482Z,97246.47
2023-02-13T23:57:57.985Z,97239.16
